Time;durP1;ratioP1;P1;durP2;ratioP2;P2;SDS_P1;SDS_P2;PMS_P1;PMS_P2;Temp;Humidity;BMP_temperature;BMP_pressure;BME280_temperature;BME280_humidity;BME280_pressure;Samples;Min_cycle;Max_cycle;Signal;HPM_P1;HPM_P2
2021/08/24 00:01:00;;;;;;;14.83;12.17;;;18.10;99.90;;;;;;5050099;28;20505;-64
2021/08/24 00:03:27;;;;;;;4.63;3.20;;;18.10;99.90;;;;;;5051009;28;20491;-65
2021/08/24 00:05:54;;;;;;;3.10;2.63;;;18.00;99.90;;;;;;5051656;28;20494;-65
2021/08/24 00:08:21;;;;;;;6.53;3.37;;;18.10;99.90;;;;;;5054450;28;20468;-65
2021/08/24 00:10:51;;;;;;;4.20;2.37;;;18.00;99.90;;;;;;5055367;28;20498;-65
2021/08/24 00:13:20;;;;;;;5.10;3.60;;;18.00;99.90;;;;;;5054457;28;20495;-65
2021/08/24 00:15:49;;;;;;;2.63;2.10;;;18.00;99.90;;;;;;5055497;28;20491;-64
2021/08/24 00:18:16;;;;;;;3.13;2.83;;;17.90;99.90;;;;;;5054848;28;20499;-65
2021/08/24 00:20:46;;;;;;;6.57;3.33;;;17.90;99.90;;;;;;5051336;28;20984;-65
2021/08/24 00:23:14;;;;;;;1.80;1.70;;;17.90;99.90;;;;;;5054474;28;20508;-64
2021/08/24 00:25:42;;;;;;;4.53;3.80;;;17.90;99.90;;;;;;5055171;28;20535;-65
2021/08/24 00:28:09;;;;;;;3.10;1.73;;;17.80;99.90;;;;;;5054770;28;20511;-64
2021/08/24 00:30:38;;;;;;;3.27;2.60;;;17.80;99.90;;;;;;5055175;28;20891;-64
2021/08/24 00:33:06;;;;;;;4.23;3.27;;;17.80;99.90;;;;;;5055058;28;20467;-64
2021/08/24 00:35:38;;;;;;;2.70;2.10;;;17.70;99.90;;;;;;5051415;28;20479;-65
2021/08/24 00:38:06;;;;;;;4.23;2.30;;;17.70;99.90;;;;;;5054978;28;21030;-65
2021/08/24 00:40:33;;;;;;;3.67;2.80;;;17.70;99.90;;;;;;5054441;28;20548;-65
2021/08/24 00:43:00;;;;;;;4.27;3.47;;;17.60;99.90;;;;;;5054922;28;20487;-65
2021/08/24 00:45:27;;;;;;;2.57;1.47;;;17.60;99.90;;;;;;5067335;28;20889;-64
2021/08/24 00:47:55;;;;;;;2.70;1.93;;;17.60;99.90;;;;;;5074643;28;20490;-65
2021/08/24 00:50:28;;;;;;;4.70;2.30;;;17.50;99.90;;;;;;5074405;28;20554;-64
2021/08/24 00:52:58;;;;;;;3.03;2.13;;;17.50;99.90;;;;;;5073516;28;20486;-65
2021/08/24 00:55:25;;;;;;;3.27;2.10;;;17.50;99.90;;;;;;5074326;28;20462;-65
2021/08/24 00:57:58;;;;;;;3.80;2.70;;;17.40;99.90;;;;;;5074441;28;20486;-65
2021/08/24 01:00:26;;;;;;;2.07;1.77;;;17.30;99.90;;;;;;5074288;28;20493;-65
2021/08/24 01:03:05;;;;;;;2.10;1.90;;;17.30;99.90;;;;;;5065172;28;20502;-66
2021/08/24 01:05:34;;;;;;;3.90;2.17;;;17.20;99.90;;;;;;5073891;28;21033;-64
2021/08/24 01:08:08;;;;;;;3.37;2.00;;;17.20;99.90;;;;;;5074666;28;20490;-64
2021/08/24 01:10:42;;;;;;;2.63;1.77;;;17.10;99.90;;;;;;5073923;28;20500;-64
2021/08/24 01:13:18;;;;;;;3.70;1.97;;;17.10;99.90;;;;;;5074291;28;20486;-64
2021/08/24 01:15:50;;;;;;;4.00;2.23;;;17.00;99.90;;;;;;5073834;28;20478;-64
2021/08/24 01:18:27;;;;;;;2.60;1.87;;;17.00;99.90;;;;;;5073495;28;20524;-65
2021/08/24 01:21:19;;;;;;;3.90;2.83;;;16.90;99.90;;;;;;5073828;28;20477;-64
2021/08/24 01:23:52;;;;;;;28.57;24.67;;;16.90;99.90;;;;;;5073503;28;20508;-64
2021/08/24 01:26:29;;;;;;;3.27;2.60;;;16.80;99.90;;;;;;5061475;28;20848;-65
2021/08/24 01:29:21;;;;;;;2.43;1.80;;;16.80;99.90;;;;;;5072125;28;20556;-64
2021/08/24 01:32:09;;;;;;;2.83;1.87;;;16.70;99.90;;;;;;5073807;28;20486;-64
2021/08/24 01:34:53;;;;;;;3.13;1.93;;;16.70;99.90;;;;;;5058401;28;20483;-64
2021/08/24 01:37:28;;;;;;;2.40;2.00;;;16.70;99.90;;;;;;5071204;28;20501;-64
2021/08/24 01:40:03;;;;;;;5.57;2.60;;;16.60;99.90;;;;;;5073326;28;20494;-64
2021/08/24 01:42:32;;;;;;;3.53;1.80;;;16.60;99.90;;;;;;5073905;28;21027;-64
2021/08/24 01:45:06;;;;;;;9.93;7.53;;;16.60;99.90;;;;;;5063981;28;20499;-64
2021/08/24 01:47:43;;;;;;;3.80;2.20;;;16.60;99.90;;;;;;5053545;28;20498;-64
2021/08/24 01:50:13;;;;;;;6.20;3.43;;;16.50;99.90;;;;;;5053299;28;20494;-65
2021/08/24 01:52:45;;;;;;;3.50;1.90;;;16.50;99.90;;;;;;5041659;28;20498;-65
2021/08/24 01:55:17;;;;;;;4.97;4.00;;;16.50;99.90;;;;;;5031707;28;20582;-65
2021/08/24 01:57:51;;;;;;;4.20;1.90;;;16.50;99.90;;;;;;5035935;28;20505;-65
2021/08/24 02:00:18;;;;;;;3.20;2.00;;;16.50;99.90;;;;;;5052844;28;20487;-65
2021/08/24 02:02:51;;;;;;;3.30;1.80;;;16.50;99.90;;;;;;5053367;28;20486;-65
2021/08/24 02:05:22;;;;;;;2.63;1.97;;;16.50;99.90;;;;;;5053135;28;20908;-65
2021/08/24 02:07:55;;;;;;;4.13;2.30;;;16.50;99.90;;;;;;5051707;28;20973;-65
2021/08/24 02:10:24;;;;;;;3.90;2.20;;;16.40;99.90;;;;;;5051474;28;21119;-65
2021/08/24 02:12:54;;;;;;;3.77;2.43;;;16.40;99.90;;;;;;5051613;28;20545;-65
2021/08/24 02:15:25;;;;;;;4.40;1.77;;;16.40;99.90;;;;;;5051133;28;20478;-63
2021/08/24 02:17:53;;;;;;;2.97;1.80;;;16.30;99.90;;;;;;5052116;28;20501;-65
2021/08/24 02:20:25;;;;;;;4.40;2.10;;;16.30;99.90;;;;;;5052782;28;20485;-65
2021/08/24 02:22:57;;;;;;;2.93;2.20;;;16.30;99.90;;;;;;5053296;28;20489;-65
2021/08/24 02:25:29;;;;;;;3.57;2.37;;;16.30;99.90;;;;;;5053210;28;21587;-65
2021/08/24 02:28:01;;;;;;;5.73;2.60;;;16.30;99.90;;;;;;5053003;28;20524;-64
2021/08/24 02:30:31;;;;;;;1.93;1.83;;;16.20;99.90;;;;;;5052659;28;20554;-64
2021/08/24 02:32:58;;;;;;;1.63;1.53;;;16.20;99.90;;;;;;5053115;28;20874;-64
2021/08/24 02:35:32;;;;;;;2.83;2.10;;;16.20;99.90;;;;;;5052422;28;20869;-64
2021/08/24 02:38:05;;;;;;;3.27;2.00;;;16.20;99.90;;;;;;5052750;28;20539;-64
2021/08/24 02:40:41;;;;;;;3.93;2.20;;;16.20;99.90;;;;;;5052896;28;20482;-64
2021/08/24 02:43:20;;;;;;;2.80;2.40;;;16.10;99.90;;;;;;5052544;28;20465;-64
2021/08/24 02:45:53;;;;;;;2.87;1.93;;;16.10;99.90;;;;;;5068495;28;20493;-64
2021/08/24 02:48:22;;;;;;;5.17;1.90;;;16.10;99.90;;;;;;5072292;28;20552;-66
2021/08/24 02:50:50;;;;;;;3.10;1.70;;;16.10;99.90;;;;;;5072930;28;20466;-64
2021/08/24 02:53:21;;;;;;;3.00;2.10;;;16.10;99.90;;;;;;5072415;28;20487;-64
2021/08/24 02:55:48;;;;;;;2.07;1.47;;;16.10;99.90;;;;;;5072772;28;20467;-64
2021/08/24 02:58:15;;;;;;;3.10;1.90;;;16.10;99.90;;;;;;5063851;28;20513;-64
2021/08/24 03:00:42;;;;;;;2.90;2.30;;;16.10;99.90;;;;;;5052855;28;20486;-64
2021/08/24 03:03:09;;;;;;;4.10;2.30;;;16.10;99.90;;;;;;5052762;28;20490;-64
2021/08/24 03:05:36;;;;;;;3.33;2.30;;;16.00;99.90;;;;;;5052443;28;20486;-64
2021/08/24 03:08:03;;;;;;;3.40;1.97;;;16.10;99.90;;;;;;5052683;28;20501;-64
2021/08/24 03:10:33;;;;;;;5.40;1.80;;;16.00;99.90;;;;;;5052044;28;20512;-64
2021/08/24 03:13:11;;;;;;;4.33;2.40;;;16.00;99.90;;;;;;5052515;28;20493;-64
2021/08/24 03:15:43;;;;;;;3.90;1.90;;;16.00;99.90;;;;;;5052517;28;20501;-64
2021/08/24 03:18:15;;;;;;;4.50;2.00;;;16.00;99.90;;;;;;5052462;28;20950;-64
2021/08/24 03:20:45;;;;;;;2.47;1.73;;;16.00;99.90;;;;;;5052327;28;21322;-64
2021/08/24 03:23:15;;;;;;;2.80;1.90;;;16.00;99.90;;;;;;5057448;28;20492;-64
2021/08/24 03:25:46;;;;;;;2.60;1.93;;;15.90;99.90;;;;;;5072191;28;20485;-64
2021/08/24 03:28:15;;;;;;;2.00;1.60;;;15.90;99.90;;;;;;5072310;28;20496;-65
2021/08/24 03:30:42;;;;;;;2.60;2.13;;;16.00;99.90;;;;;;5071906;28;20801;-64
2021/08/24 03:33:10;;;;;;;4.93;2.60;;;15.90;99.90;;;;;;5072596;28;20488;-64
2021/08/24 03:35:38;;;;;;;4.23;2.10;;;15.90;99.90;;;;;;5059701;28;20505;-64
2021/08/24 03:38:05;;;;;;;2.70;2.50;;;15.90;99.90;;;;;;5067629;28;20523;-65
2021/08/24 03:40:33;;;;;;;3.00;2.43;;;15.90;99.90;;;;;;5072119;28;20483;-64
2021/08/24 03:43:01;;;;;;;4.13;2.10;;;15.90;99.90;;;;;;5075256;28;20503;-64
2021/08/24 03:45:29;;;;;;;2.40;2.20;;;15.90;99.90;;;;;;5075555;28;20497;-64
2021/08/24 03:47:55;;;;;;;2.90;1.97;;;15.90;99.90;;;;;;5076260;28;20465;-64
2021/08/24 03:50:23;;;;;;;2.60;1.97;;;15.80;99.90;;;;;;5075621;28;20547;-65
2021/08/24 03:52:50;;;;;;;3.50;2.27;;;15.80;99.90;;;;;;5076126;28;20487;-65
2021/08/24 03:55:18;;;;;;;2.83;2.27;;;15.80;99.90;;;;;;5061453;28;20473;-66
2021/08/24 03:57:48;;;;;;;6.63;2.40;;;15.80;99.90;;;;;;5059523;28;20488;-65
2021/08/24 04:00:17;;;;;;;5.93;2.00;;;15.80;99.90;;;;;;5075917;28;20534;-65
2021/08/24 04:02:44;;;;;;;3.33;2.63;;;15.80;99.90;;;;;;5075525;28;20493;-66
2021/08/24 04:05:12;;;;;;;4.77;2.33;;;15.80;99.90;;;;;;5075940;28;20887;-65
2021/08/24 04:07:39;;;;;;;3.53;1.70;;;15.80;99.90;;;;;;5075484;28;20488;-65
2021/08/24 04:10:08;;;;;;;4.67;1.90;;;15.80;99.90;;;;;;5075745;28;20505;-65
2021/08/24 04:12:35;;;;;;;3.43;1.80;;;15.80;99.90;;;;;;5075304;28;20461;-64
2021/08/24 04:15:05;;;;;;;2.93;1.90;;;15.80;99.90;;;;;;5075657;28;20512;-64
2021/08/24 04:17:34;;;;;;;2.57;1.60;;;15.80;99.90;;;;;;5075365;28;20473;-65
2021/08/24 04:20:01;;;;;;;3.93;2.60;;;15.70;99.90;;;;;;5075588;28;20484;-66
2021/08/24 04:22:28;;;;;;;3.57;1.83;;;15.70;99.90;;;;;;5075050;28;20511;-66
2021/08/24 04:24:55;;;;;;;1.87;1.70;;;15.70;99.90;;;;;;5075614;28;20535;-65
2021/08/24 04:27:22;;;;;;;2.43;2.20;;;15.70;99.90;;;;;;5075428;28;20508;-65
2021/08/24 04:29:49;;;;;;;10.70;8.30;;;15.70;99.90;;;;;;5075099;28;20476;-65
2021/08/24 04:32:20;;;;;;;6.47;2.60;;;15.70;99.90;;;;;;5075438;28;20504;-64
2021/08/24 04:34:48;;;;;;;6.00;2.87;;;15.60;99.90;;;;;;5074693;28;20491;-64
2021/08/24 04:37:15;;;;;;;4.90;2.50;;;15.60;99.90;;;;;;5071211;28;20498;-65
2021/08/24 04:39:42;;;;;;;3.47;2.60;;;15.70;99.90;;;;;;5071048;28;20569;-65
2021/08/24 04:42:09;;;;;;;3.43;3.13;;;15.70;99.90;;;;;;5075130;28;20503;-65
2021/08/24 04:44:36;;;;;;;4.73;3.30;;;15.70;99.90;;;;;;5074632;28;20526;-64
2021/08/24 04:47:04;;;;;;;3.20;2.60;;;15.70;99.90;;;;;;5075139;28;20534;-65
2021/08/24 04:49:32;;;;;;;4.20;2.60;;;15.70;99.90;;;;;;5074371;28;20471;-64
2021/08/24 04:52:01;;;;;;;4.13;2.77;;;15.70;99.90;;;;;;5075023;28;20984;-65
2021/08/24 04:54:33;;;;;;;5.90;3.60;;;15.70;99.90;;;;;;5073398;28;21000;-65
2021/08/24 04:57:02;;;;;;;5.23;2.83;;;15.60;99.90;;;;;;5075085;28;20464;-65
2021/08/24 04:59:29;;;;;;;3.87;2.60;;;15.60;99.90;;;;;;5074099;28;21002;-65
2021/08/24 05:01:56;;;;;;;4.80;2.90;;;15.70;99.90;;;;;;5074539;28;20475;-63
2021/08/24 05:04:24;;;;;;;9.73;2.80;;;15.60;99.90;;;;;;5074793;28;20560;-64
2021/08/24 05:06:52;;;;;;;4.13;2.27;;;15.70;99.90;;;;;;5074289;28;20459;-64
2021/08/24 05:09:21;;;;;;;4.43;3.53;;;15.70;99.90;;;;;;5074662;28;20526;-65
2021/08/24 05:11:48;;;;;;;2.63;2.07;;;15.70;99.90;;;;;;5073647;28;20470;-65
2021/08/24 05:14:15;;;;;;;4.43;3.97;;;15.70;99.90;;;;;;5074606;28;20850;-65
2021/08/24 05:16:42;;;;;;;3.93;2.93;;;15.80;99.90;;;;;;5061804;28;20496;-65
2021/08/24 05:19:09;;;;;;;5.00;2.10;;;15.80;99.90;;;;;;5054440;28;20496;-65
2021/08/24 05:21:37;;;;;;;6.37;3.20;;;15.70;99.90;;;;;;5053966;28;20495;-65
2021/08/24 05:24:04;;;;;;;3.10;2.03;;;15.70;99.90;;;;;;5054422;28;20494;-65
2021/08/24 05:26:32;;;;;;;3.43;2.23;;;15.80;99.90;;;;;;5072347;28;20487;-65
2021/08/24 05:28:59;;;;;;;3.03;2.57;;;15.80;99.90;;;;;;5074341;28;20461;-65
2021/08/24 05:31:26;;;;;;;3.47;3.17;;;15.90;99.90;;;;;;5074078;28;20561;-65
2021/08/24 05:33:53;;;;;;;3.07;2.57;;;15.90;99.90;;;;;;5073719;28;20552;-65
2021/08/24 05:36:20;;;;;;;4.23;2.90;;;15.90;99.90;;;;;;5056336;28;20493;-64
2021/08/24 05:38:47;;;;;;;7.60;4.97;;;16.00;99.90;;;;;;5058435;28;20501;-64
2021/08/24 05:41:14;;;;;;;6.50;3.00;;;16.00;99.90;;;;;;5074094;28;20515;-65
2021/08/24 05:43:42;;;;;;;3.40;3.10;;;16.00;99.90;;;;;;5073698;28;20496;-66
2021/08/24 05:46:12;;;;;;;7.03;4.67;;;16.10;99.90;;;;;;5071880;28;20494;-66
2021/08/24 05:48:40;;;;;;;4.93;2.90;;;16.20;99.90;;;;;;5053475;28;20501;-65
2021/08/24 05:51:10;;;;;;;5.33;3.10;;;16.20;99.90;;;;;;5054098;28;20491;-65
2021/08/24 05:53:36;;;;;;;3.70;3.07;;;16.30;99.90;;;;;;5053276;28;20473;-65
2021/08/24 05:56:07;;;;;;;6.00;4.47;;;16.30;99.90;;;;;;5053791;28;20830;-65
2021/08/24 05:58:34;;;;;;;5.67;2.70;;;16.30;99.90;;;;;;5065564;28;20961;-65
2021/08/24 06:01:02;;;;;;;3.10;2.37;;;16.40;99.90;;;;;;5053654;28;20486;-65
2021/08/24 06:03:29;;;;;;;7.23;3.23;;;16.50;99.90;;;;;;5053643;28;20569;-65
2021/08/24 06:05:58;;;;;;;4.07;3.10;;;16.50;99.90;;;;;;5053118;28;20481;-65
2021/08/24 06:08:25;;;;;;;2.30;2.03;;;16.50;99.90;;;;;;5053438;28;20475;-65
2021/08/24 06:10:51;;;;;;;19.27;13.17;;;16.60;99.90;;;;;;5052926;28;20492;-64
2021/08/24 06:13:18;;;;;;;4.33;3.93;;;16.60;99.90;;;;;;5065999;28;20466;-65
2021/08/24 06:15:45;;;;;;;3.47;2.80;;;16.60;99.90;;;;;;5052894;28;20494;-65
2021/08/24 06:18:14;;;;;;;23.53;17.63;;;16.70;99.90;;;;;;5053256;28;20482;-65
2021/08/24 06:20:42;;;;;;;3.90;2.93;;;16.80;99.90;;;;;;5052636;28;20478;-65
2021/08/24 06:23:09;;;;;;;6.07;3.67;;;16.80;99.90;;;;;;5056668;28;20507;-65
2021/08/24 06:25:36;;;;;;;6.77;3.37;;;16.90;99.90;;;;;;5068439;28;20525;-66
2021/08/24 06:28:03;;;;;;;3.50;2.50;;;16.90;99.90;;;;;;5053277;28;20463;-65
2021/08/24 06:30:29;;;;;;;12.60;8.93;;;17.00;99.90;;;;;;5065642;28;20564;-64
2021/08/24 06:32:58;;;;;;;7.13;3.70;;;17.10;99.90;;;;;;5072508;28;20482;-64
2021/08/24 06:35:26;;;;;;;7.13;3.37;;;17.10;99.90;;;;;;5062942;28;20559;-65
2021/08/24 06:37:53;;;;;;;2.87;2.10;;;17.10;99.90;;;;;;5052461;28;20499;-65
2021/08/24 06:40:20;;;;;;;4.30;3.90;;;17.20;99.90;;;;;;5070252;28;20490;-64
2021/08/24 06:42:49;;;;;;;8.67;6.80;;;17.30;99.90;;;;;;5072723;28;20983;-64
2021/08/24 06:45:18;;;;;;;3.97;3.40;;;17.40;99.90;;;;;;5072610;28;20513;-64
2021/08/24 06:47:45;;;;;;;7.67;2.60;;;17.50;99.90;;;;;;5072214;28;20490;-64
2021/08/24 06:50:12;;;;;;;5.20;4.00;;;17.50;99.90;;;;;;5073042;28;20462;-64
2021/08/24 06:52:41;;;;;;;5.57;4.40;;;17.60;99.90;;;;;;5071926;28;20545;-65
2021/08/24 06:55:09;;;;;;;7.87;5.73;;;17.60;99.90;;;;;;5072545;28;20497;-65
2021/08/24 06:57:36;;;;;;;13.17;10.00;;;17.70;99.90;;;;;;5072246;28;20473;-64
2021/08/24 07:00:05;;;;;;;4.60;3.80;;;17.80;99.90;;;;;;5072702;28;20608;-64
2021/08/24 07:02:32;;;;;;;5.23;2.97;;;17.80;99.90;;;;;;5072745;28;20495;-64
2021/08/24 07:05:00;;;;;;;3.60;2.70;;;17.90;99.90;;;;;;5071855;28;20492;-64
2021/08/24 07:07:27;;;;;;;3.67;2.20;;;18.00;99.90;;;;;;5072654;28;20477;-64
2021/08/24 07:09:55;;;;;;;6.10;4.23;;;18.00;99.90;;;;;;5072265;28;20494;-64
2021/08/24 07:12:22;;;;;;;2.60;1.97;;;18.20;99.90;;;;;;5072273;28;20486;-64
2021/08/24 07:14:49;;;;;;;4.10;2.70;;;18.20;99.90;;;;;;5072009;28;20490;-64
2021/08/24 07:17:16;;;;;;;5.00;2.17;;;18.30;99.90;;;;;;5071928;28;20521;-64
2021/08/24 07:19:43;;;;;;;3.60;2.70;;;18.40;99.90;;;;;;5071846;28;20842;-64
2021/08/24 07:22:10;;;;;;;4.93;3.80;;;18.50;99.90;;;;;;5072549;28;20458;-65
2021/08/24 07:24:37;;;;;;;6.83;3.27;;;18.50;99.90;;;;;;5072126;28;20493;-64
2021/08/24 07:27:06;;;;;;;3.70;2.63;;;18.60;99.90;;;;;;5072423;28;20504;-64
2021/08/24 07:29:33;;;;;;;21.53;19.13;;;18.70;99.90;;;;;;5072373;28;20501;-64
2021/08/24 07:32:00;;;;;;;4.53;2.10;;;18.70;99.90;;;;;;5071716;28;20478;-65
2021/08/24 07:34:27;;;;;;;4.70;2.23;;;18.80;99.90;;;;;;5072419;28;20552;-65
2021/08/24 07:36:54;;;;;;;3.73;3.40;;;18.80;99.90;;;;;;5072020;28;20888;-64
2021/08/24 07:39:21;;;;;;;6.10;2.13;;;18.90;99.50;;;;;;5072351;28;20494;-65
2021/08/24 07:41:47;;;;;;;2.37;2.17;;;18.90;99.10;;;;;;5071875;28;20513;-64
2021/08/24 07:44:16;;;;;;;2.67;2.23;;;18.80;99.30;;;;;;5072046;28;20498;-65
2021/08/24 07:46:42;;;;;;;4.90;3.40;;;18.80;99.30;;;;;;5071962;28;21010;-65
2021/08/24 07:49:09;;;;;;;4.53;2.10;;;18.90;99.40;;;;;;5072122;28;20493;-65
2021/08/24 07:51:36;;;;;;;2.73;2.13;;;19.00;98.40;;;;;;5072142;28;20981;-64
2021/08/24 07:54:04;;;;;;;2.93;2.07;;;19.10;98.40;;;;;;5071898;28;20826;-64
2021/08/24 07:56:31;;;;;;;2.53;2.33;;;19.10;97.90;;;;;;5072252;28;20478;-65
2021/08/24 07:58:58;;;;;;;3.33;2.23;;;19.20;97.40;;;;;;5071641;28;20521;-64
2021/08/24 08:01:26;;;;;;;3.50;2.33;;;19.30;96.80;;;;;;5072117;28;20501;-64
2021/08/24 08:03:53;;;;;;;1.70;1.50;;;19.40;96.60;;;;;;5071718;28;20527;-64
2021/08/24 08:06:20;;;;;;;4.23;2.80;;;19.40;96.40;;;;;;5072451;28;20960;-65
2021/08/24 08:08:47;;;;;;;2.00;1.40;;;19.50;96.80;;;;;;5071528;28;20507;-64
2021/08/24 08:11:14;;;;;;;3.90;3.53;;;19.50;95.70;;;;;;5071795;28;20493;-64
2021/08/24 08:13:41;;;;;;;10.20;7.27;;;19.50;95.90;;;;;;5071568;28;20463;-66
2021/08/24 08:16:09;;;;;;;5.17;4.57;;;19.50;96.00;;;;;;5071951;28;20481;-64
2021/08/24 08:18:37;;;;;;;3.73;1.90;;;19.60;95.60;;;;;;5071960;28;20475;-64
2021/08/24 08:21:04;;;;;;;2.10;1.50;;;19.70;95.50;;;;;;5071440;28;20485;-65
2021/08/24 08:23:31;;;;;;;2.67;2.40;;;19.80;95.40;;;;;;5071937;28;20529;-65
2021/08/24 08:25:58;;;;;;;2.63;2.13;;;19.80;95.40;;;;;;5071569;28;20847;-65
2021/08/24 08:28:25;;;;;;;3.63;2.83;;;19.90;94.80;;;;;;5073690;28;20980;-65
2021/08/24 08:30:51;;;;;;;4.20;2.30;;;20.00;94.50;;;;;;5074955;28;20465;-63
2021/08/24 08:33:18;;;;;;;3.40;2.20;;;20.00;94.60;;;;;;5075188;28;20963;-64
2021/08/24 08:35:46;;;;;;;2.80;1.73;;;20.00;94.10;;;;;;5074790;28;20490;-64
2021/08/24 08:38:13;;;;;;;4.23;3.83;;;20.10;93.90;;;;;;5075202;28;20526;-65
2021/08/24 08:40:50;;;;;;;5.90;2.00;;;20.20;93.60;;;;;;5075285;28;20490;-65
2021/08/24 08:43:25;;;;;;;5.53;1.50;;;20.20;93.10;;;;;;5075524;28;20458;-66
2021/08/24 08:45:53;;;;;;;3.67;2.60;;;20.20;93.00;;;;;;5074797;28;20501;-64
2021/08/24 08:48:32;;;;;;;5.37;2.20;;;20.30;93.30;;;;;;5074980;28;20490;-64
2021/08/24 08:51:12;;;;;;;5.80;1.67;;;20.30;93.00;;;;;;5074653;28;20486;-65
2021/08/24 08:53:48;;;;;;;3.03;1.43;;;20.40;92.90;;;;;;5074679;28;20850;-65
2021/08/24 08:56:27;;;;;;;2.63;2.37;;;20.40;92.50;;;;;;5074938;28;20496;-65
2021/08/24 08:59:01;;;;;;;1.87;1.70;;;20.50;92.30;;;;;;5074402;28;20887;-65
2021/08/24 09:01:35;;;;;;;3.27;1.40;;;20.50;92.30;;;;;;5074789;28;20463;-66
2021/08/24 09:04:13;;;;;;;3.30;1.93;;;20.50;92.20;;;;;;5074380;28;21588;-64
2021/08/24 09:06:42;;;;;;;3.17;2.87;;;20.60;92.00;;;;;;5074338;28;20511;-64
2021/08/24 09:09:09;;;;;;;7.33;6.60;;;20.60;91.80;;;;;;5074752;28;20490;-65
2021/08/24 09:11:41;;;;;;;7.43;6.70;;;20.60;93.00;;;;;;5074529;28;20984;-65
2021/08/24 09:14:16;;;;;;;2.50;2.23;;;20.70;92.50;;;;;;5074346;28;21329;-64
2021/08/24 09:16:49;;;;;;;2.57;1.80;;;20.70;92.10;;;;;;5074208;28;20490;-65
2021/08/24 09:19:19;;;;;;;2.90;2.43;;;20.70;91.60;;;;;;5074565;28;20507;-65
2021/08/24 09:21:48;;;;;;;2.60;1.73;;;20.80;91.70;;;;;;5074044;28;20995;-65
2021/08/24 09:24:17;;;;;;;1.87;1.67;;;20.80;91.30;;;;;;5073995;28;20461;-65
2021/08/24 09:26:53;;;;;;;2.40;2.20;;;20.90;91.60;;;;;;5073733;28;20992;-65
2021/08/24 09:29:25;;;;;;;1.50;1.40;;;20.80;91.20;;;;;;5074152;28;20462;-65
2021/08/24 09:31:52;;;;;;;4.03;2.83;;;20.80;91.20;;;;;;5073543;28;20506;-65
2021/08/24 09:34:24;;;;;;;3.90;2.27;;;20.80;91.50;;;;;;5074099;28;20538;-64
2021/08/24 09:36:52;;;;;;;2.10;1.83;;;20.70;91.40;;;;;;5073668;28;20980;-65
2021/08/24 09:39:54;;;;;;;2.93;2.47;;;20.70;91.40;;;;;;5073303;28;20488;-65
2021/08/24 09:42:30;;;;;;;2.47;1.93;;;20.70;91.40;;;;;;5074603;28;20493;-65
2021/08/24 09:45:00;;;;;;;2.30;2.00;;;20.70;91.60;;;;;;5073519;28;21620;-64
2021/08/24 09:47:28;;;;;;;4.63;2.50;;;20.70;91.30;;;;;;5073823;28;20504;-64
2021/08/24 09:50:02;;;;;;;5.07;3.70;;;20.70;91.30;;;;;;5073371;28;21105;-64
2021/08/24 09:52:33;;;;;;;10.87;9.03;;;20.80;91.80;;;;;;5068667;28;21034;-64
2021/08/24 09:55:06;;;;;;;19.13;16.40;;;20.80;92.50;;;;;;5053701;28;21098;-64
2021/08/24 09:57:35;;;;;;;18.57;14.53;;;20.90;92.50;;;;;;5054020;28;20499;-65
2021/08/24 10:00:05;;;;;;;6.37;4.07;;;21.00;92.40;;;;;;5053396;28;20865;-65
2021/08/24 10:02:39;;;;;;;3.93;1.70;;;21.10;91.50;;;;;;5053559;28;20494;-65
2021/08/24 10:05:10;;;;;;;3.47;2.60;;;21.20;90.70;;;;;;5053505;28;20470;-65
2021/08/24 10:07:40;;;;;;;5.20;4.70;;;21.20;90.70;;;;;;5053623;28;20463;-66
2021/08/24 10:10:10;;;;;;;2.50;1.90;;;21.30;91.20;;;;;;5053176;28;20474;-66
2021/08/24 10:12:38;;;;;;;2.60;1.70;;;21.40;90.20;;;;;;5053420;28;20495;-66
2021/08/24 10:15:28;;;;;;;2.50;1.83;;;21.40;89.40;;;;;;5053158;28;20462;-66
2021/08/24 10:18:05;;;;;;;2.43;2.07;;;21.40;87.20;;;;;;5052999;28;20487;-65
2021/08/24 10:20:35;;;;;;;2.10;1.90;;;21.40;87.30;;;;;;5053490;28;20629;-64
2021/08/24 10:23:07;;;;;;;2.20;2.00;;;21.40;87.10;;;;;;5052549;28;20838;-65
2021/08/24 10:25:41;;;;;;;4.63;2.50;;;21.30;87.80;;;;;;5052671;28;20490;-65
2021/08/24 10:28:14;;;;;;;2.73;1.97;;;21.30;88.60;;;;;;5052239;28;20487;-65
2021/08/24 10:30:47;;;;;;;4.00;2.10;;;21.40;88.90;;;;;;5052656;28;20546;-65
2021/08/24 10:33:31;;;;;;;3.00;2.13;;;21.40;89.40;;;;;;5052982;28;20930;-65
2021/08/24 10:36:01;;;;;;;2.87;1.90;;;21.60;90.10;;;;;;5052527;28;20538;-65
2021/08/24 10:38:43;;;;;;;2.50;1.67;;;21.60;89.60;;;;;;5052830;28;20495;-65
2021/08/24 10:41:30;;;;;;;3.90;2.20;;;21.70;88.80;;;;;;5052533;28;20478;-65
2021/08/24 10:44:00;;;;;;;2.43;2.03;;;21.70;88.80;;;;;;5052206;28;20475;-65
2021/08/24 10:46:29;;;;;;;2.20;2.00;;;21.80;89.50;;;;;;5052867;28;20517;-65
2021/08/24 10:48:56;;;;;;;5.10;2.77;;;21.80;89.40;;;;;;5052373;28;20981;-65
2021/08/24 10:51:38;;;;;;;3.03;2.00;;;21.80;89.00;;;;;;5051805;28;20550;-65
2021/08/24 10:54:23;;;;;;;3.33;3.03;;;21.90;89.00;;;;;;5052319;28;20874;-66
2021/08/24 10:56:54;;;;;;;3.70;2.90;;;21.90;87.00;;;;;;5052593;28;20495;-65
2021/08/24 10:59:34;;;;;;;4.93;2.63;;;21.90;87.00;;;;;;5052448;28;20925;-65
2021/08/24 11:02:12;;;;;;;7.27;3.10;;;21.90;87.10;;;;;;5052300;28;20502;-65
2021/08/24 11:04:55;;;;;;;3.83;2.67;;;22.00;83.90;;;;;;5052654;28;20490;-65
2021/08/24 11:07:32;;;;;;;5.20;2.80;;;22.00;80.80;;;;;;5052331;28;20491;-65
2021/08/24 11:10:10;;;;;;;3.30;2.50;;;22.00;79.80;;;;;;5052280;28;20491;-65
2021/08/24 11:12:52;;;;;;;3.30;3.00;;;22.00;80.60;;;;;;5044255;28;20536;-65
2021/08/24 11:15:42;;;;;;;3.40;2.40;;;22.10;81.00;;;;;;5052172;28;20841;-65
2021/08/24 11:18:19;;;;;;;2.90;2.60;;;22.20;80.90;;;;;;5051902;28;20884;-66
2021/08/24 11:20:50;;;;;;;6.30;4.30;;;22.20;81.00;;;;;;5052515;28;20494;-66
2021/08/24 11:23:24;;;;;;;5.77;4.37;;;22.30;80.10;;;;;;5052093;28;20492;-66
2021/08/24 11:26:01;;;;;;;3.30;2.90;;;22.30;80.10;;;;;;5052420;28;20502;-66
2021/08/24 11:28:38;;;;;;;3.10;2.80;;;22.30;77.80;;;;;;5052023;28;21577;-65
2021/08/24 11:31:10;;;;;;;3.67;2.90;;;22.20;77.30;;;;;;5051932;28;20498;-65
2021/08/24 11:33:41;;;;;;;3.17;2.87;;;22.20;77.30;;;;;;5052624;28;20509;-65
2021/08/24 11:36:15;;;;;;;4.43;2.90;;;22.20;78.50;;;;;;5051846;28;20491;-65
2021/08/24 11:38:45;;;;;;;5.00;3.30;;;22.20;80.00;;;;;;5052276;28;20490;-65
2021/08/24 11:41:18;;;;;;;4.27;3.33;;;22.20;79.20;;;;;;5051980;28;20506;-65
2021/08/24 11:43:49;;;;;;;3.83;2.90;;;22.20;77.30;;;;;;5052280;28;20501;-65
2021/08/24 11:46:23;;;;;;;4.63;3.10;;;22.20;76.80;;;;;;5051804;28;20502;-65
2021/08/24 11:48:55;;;;;;;3.33;3.00;;;22.10;76.40;;;;;;5052039;28;20479;-65
2021/08/24 11:51:27;;;;;;;3.70;3.10;;;22.00;77.40;;;;;;5051843;28;20497;-65
2021/08/24 11:54:08;;;;;;;3.23;2.93;;;22.00;77.60;;;;;;5052319;28;20491;-65
2021/08/24 11:56:43;;;;;;;3.87;3.23;;;22.10;78.30;;;;;;5052095;28;20553;-65
2021/08/24 11:59:17;;;;;;;3.90;2.90;;;22.20;78.00;;;;;;5051381;28;20536;-65
2021/08/24 12:01:47;;;;;;;4.90;3.50;;;22.20;78.30;;;;;;5052004;28;20495;-65
2021/08/24 12:04:18;;;;;;;4.20;3.40;;;22.20;78.20;;;;;;5054947;28;20862;-64
2021/08/24 12:06:49;;;;;;;4.03;3.60;;;22.30;80.00;;;;;;5055789;28;20968;-64
2021/08/24 12:09:35;;;;;;;3.23;2.93;;;22.40;78.70;;;;;;5055367;28;20506;-65
2021/08/24 12:12:05;;;;;;;3.83;3.47;;;22.40;78.80;;;;;;5055787;28;20960;-65
2021/08/24 12:14:36;;;;;;;5.53;3.53;;;22.40;77.70;;;;;;5055300;28;20490;-65
2021/08/24 12:17:05;;;;;;;5.40;4.40;;;22.40;77.30;;;;;;5055785;28;20495;-64
2021/08/24 12:19:34;;;;;;;3.53;3.23;;;22.50;74.90;;;;;;5055037;28;20506;-64
2021/08/24 12:22:30;;;;;;;5.00;4.10;;;22.40;75.30;;;;;;5055546;28;20466;-65
2021/08/24 12:25:03;;;;;;;4.70;3.37;;;22.50;76.10;;;;;;5055367;28;20491;-64
2021/08/24 12:28:00;;;;;;;4.53;4.10;;;22.50;76.30;;;;;;5055762;28;20494;-64
2021/08/24 12:30:30;;;;;;;5.07;4.57;;;22.50;75.80;;;;;;5054904;28;20521;-64
2021/08/24 12:33:29;;;;;;;4.80;4.03;;;22.50;81.30;;;;;;5055465;28;20503;-64
2021/08/24 12:35:56;;;;;;;5.00;4.07;;;22.40;75.50;;;;;;5055380;28;20502;-64
2021/08/24 12:38:46;;;;;;;4.27;3.87;;;22.40;76.80;;;;;;5055308;28;20474;-65
2021/08/24 12:41:45;;;;;;;5.37;3.87;;;22.30;78.40;;;;;;5055239;28;20452;-65
2021/08/24 12:44:24;;;;;;;4.57;3.70;;;22.40;74.30;;;;;;5054529;28;20482;-65
2021/08/24 12:46:52;;;;;;;4.67;3.50;;;22.40;75.00;;;;;;5054766;28;20538;-65
2021/08/24 12:49:40;;;;;;;4.90;4.30;;;22.40;75.30;;;;;;5055165;28;20502;-65
2021/08/24 12:52:33;;;;;;;4.93;4.13;;;22.30;76.10;;;;;;5054615;28;20460;-65
2021/08/24 12:55:15;;;;;;;4.53;3.67;;;22.30;76.50;;;;;;5054478;28;20455;-65
2021/08/24 12:57:44;;;;;;;4.83;4.33;;;22.50;73.40;;;;;;5054822;28;20529;-65
2021/08/24 13:00:21;;;;;;;4.23;3.50;;;22.40;76.20;;;;;;5054177;28;20503;-65
2021/08/24 13:03:18;;;;;;;4.93;4.30;;;22.40;73.00;;;;;;5054770;28;20466;-65
2021/08/24 13:05:47;;;;;;;9.57;7.63;;;22.40;75.60;;;;;;5054492;28;20862;-65